Terminal Aerodrome Forecast
Issued by NWS

Home | Current Version | Previous Version | Text Only | Print | Product List | Glossary On
Versions: 1 2 3 4 5 6 7 8 9 10 11 12 13 14 15 16 17 18 19
000
FTUS46 KMTR 040520
TAFSNS
TAF
KSNS 040520Z 0406/0506 24005KT P6SM BKN020
      TEMPO 0406/0409 SCT020
     FM041000 25009KT P6SM BKN015
     FM041700 26013KT P6SM FEW018
     FM042100 26015G21KT P6SM SKC
     FM050400 25010KT P6SM SCT018=

USA.gov is the U.S. government's official web portal to all federal, state and local government web resources and services.